Time;durP1;ratioP1;P1;durP2;ratioP2;P2;SDS_P1;SDS_P2;PMS_P1;PMS_P2;Temp;Humidity;BMP_temperature;BMP_pressure;BME280_temperature;BME280_humidity;BME280_pressure;Samples;Min_cycle;Max_cycle;Signal;HPM_P1;HPM_P2
2021/08/27 00:02:19;0.00;0.00;0.62;0.00;0.00;0.62;1.80;1.20;;;26.50;31.00;;;;;;2245270;61;20386;-61
2021/08/27 00:05:07;0.00;0.00;0.62;0.00;0.00;0.62;2.90;1.70;;;26.50;31.00;;;;;;2245335;61;20405;-61
2021/08/27 00:07:52;0.00;0.00;0.62;0.00;0.00;0.62;2.23;1.20;;;26.50;31.00;;;;;;2245534;61;20716;-61
2021/08/27 00:10:36;0.00;0.00;0.62;0.00;0.00;0.62;2.80;1.10;;;26.50;31.00;;;;;;2244921;61;20592;-61
2021/08/27 00:13:21;0.00;0.00;0.62;0.00;0.00;0.62;3.10;1.43;;;26.50;31.00;;;;;;2245681;61;20612;-61
2021/08/27 00:16:05;0.00;0.00;0.62;0.00;0.00;0.62;1.83;1.30;;;26.50;31.10;;;;;;2246211;61;20641;-61
2021/08/27 00:18:50;0.00;0.00;0.62;0.00;0.00;0.62;2.07;1.10;;;26.50;31.10;;;;;;2245367;61;20497;-61
2021/08/27 00:21:36;0.00;0.00;0.62;0.00;0.00;0.62;2.53;1.53;;;26.50;31.00;;;;;;2246345;61;20573;-61
2021/08/27 00:24:20;0.00;0.00;0.62;0.00;0.00;0.62;3.17;1.57;;;26.50;31.10;;;;;;2245874;61;20729;-61
2021/08/27 00:27:05;0.00;0.00;0.62;0.00;0.00;0.62;3.67;1.87;;;26.40;31.00;;;;;;2245467;61;20361;-61
2021/08/27 00:29:50;0.00;0.00;0.62;0.00;0.00;0.62;3.43;1.60;;;26.50;31.10;;;;;;2245943;61;20420;-62
2021/08/27 00:32:34;0.00;0.00;0.62;0.00;0.00;0.62;3.33;1.50;;;26.50;31.10;;;;;;2245728;61;20357;-61
2021/08/27 00:35:18;0.00;0.00;0.62;0.00;0.00;0.62;3.30;1.43;;;26.50;31.20;;;;;;2245892;61;20364;-61
2021/08/27 00:38:04;0.00;0.00;0.62;0.00;0.00;0.62;1.83;1.10;;;26.40;31.10;;;;;;2246209;61;20397;-61
2021/08/27 00:40:49;0.00;0.00;0.62;0.00;0.00;0.62;2.40;1.60;;;26.50;31.30;;;;;;2245148;61;20365;-61
2021/08/27 00:43:15;0.00;0.00;0.62;0.00;0.00;0.62;1.73;1.07;;;26.50;31.30;;;;;;2246247;61;20583;-61
2021/08/27 00:46:00;0.00;0.00;0.62;0.00;0.00;0.62;2.90;1.33;;;26.50;31.30;;;;;;2246264;61;20369;-61
2021/08/27 00:48:45;0.00;0.00;0.62;0.00;0.00;0.62;1.73;1.13;;;26.50;31.30;;;;;;2245302;61;20458;-62
2021/08/27 00:51:29;0.00;0.00;0.62;0.00;0.00;0.62;2.37;1.33;;;26.50;31.30;;;;;;2246227;61;20445;-62
2021/08/27 00:54:16;0.00;0.00;0.62;0.00;0.00;0.62;4.03;1.67;;;26.50;31.30;;;;;;2245754;61;20366;-61
2021/08/27 00:57:02;0.00;0.00;0.62;0.00;0.00;0.62;3.63;1.20;;;26.50;31.30;;;;;;2245067;61;20389;-61
2021/08/27 00:59:46;0.00;0.00;0.62;0.00;0.00;0.62;2.17;1.47;;;26.50;31.30;;;;;;2246294;61;20450;-61
2021/08/27 01:02:31;0.00;0.00;0.62;0.00;0.00;0.62;1.77;1.13;;;26.50;31.40;;;;;;2245423;61;20370;-61
2021/08/27 01:05:16;0.00;0.00;0.62;0.00;0.00;0.62;1.60;1.07;;;26.40;31.30;;;;;;2246283;61;20366;-61
2021/08/27 01:08:10;0.00;0.00;0.62;0.00;0.00;0.62;2.07;1.13;;;26.50;31.40;;;;;;2246199;61;20753;-61
2021/08/27 01:11:02;0.00;0.00;0.62;0.00;0.00;0.62;2.10;1.70;;;26.50;31.40;;;;;;2244814;61;20408;-61
2021/08/27 01:13:54;0.00;0.00;0.62;0.00;0.00;0.62;2.07;1.47;;;26.50;31.40;;;;;;2246106;61;20362;-61
2021/08/27 01:16:52;0.00;0.00;0.62;0.00;0.00;0.62;2.33;1.10;;;26.40;31.40;;;;;;2245526;61;20603;-61
2021/08/27 01:20:06;0.00;0.00;0.62;0.00;0.00;0.62;2.43;1.33;;;26.40;31.40;;;;;;2245950;61;20357;-61
2021/08/27 01:23:14;0.00;0.00;0.62;0.00;0.00;0.62;2.40;1.10;;;26.40;31.40;;;;;;2248228;61;20378;-62
2021/08/27 01:26:02;0.00;0.00;0.62;0.00;0.00;0.62;2.10;1.20;;;26.40;31.40;;;;;;2245348;61;20365;-60
2021/08/27 01:28:50;0.00;0.00;0.62;0.00;0.00;0.62;4.07;1.57;;;26.40;31.40;;;;;;2246135;61;20809;-60
2021/08/27 01:31:43;0.00;0.00;0.62;0.00;0.00;0.62;2.93;1.40;;;26.40;31.40;;;;;;2245623;61;20406;-60
2021/08/27 01:34:38;0.00;0.00;0.62;0.00;0.00;0.62;1.80;1.07;;;26.40;31.40;;;;;;2245812;61;20354;-62
2021/08/27 01:37:23;0.00;0.00;0.62;0.00;0.00;0.62;4.17;1.40;;;26.40;31.40;;;;;;2246008;61;20429;-61
2021/08/27 01:40:10;0.00;0.00;0.62;0.00;0.00;0.62;2.03;1.30;;;26.40;31.40;;;;;;2245079;61;20370;-62
2021/08/27 01:42:56;0.00;0.00;0.62;0.00;0.00;0.62;2.03;1.10;;;26.40;31.40;;;;;;2246369;61;20446;-59
2021/08/27 01:45:44;0.00;0.00;0.62;0.00;0.00;0.62;2.17;1.20;;;26.40;31.40;;;;;;2245639;61;20438;-61
2021/08/27 01:48:33;0.00;0.00;0.62;0.00;0.00;0.62;3.20;1.50;;;26.40;31.40;;;;;;2245042;61;20382;-63
2021/08/27 01:51:20;0.00;0.00;0.62;0.00;0.00;0.62;2.40;1.10;;;26.30;31.30;;;;;;2246100;61;20386;-62
2021/08/27 01:54:05;0.00;0.00;0.62;0.00;0.00;0.62;5.93;1.17;;;26.40;31.40;;;;;;2245384;61;20372;-61
2021/08/27 01:56:51;0.00;0.00;0.62;0.00;0.00;0.62;2.47;1.23;;;26.30;31.30;;;;;;2245677;61;20768;-61
2021/08/27 01:59:38;0.00;0.00;0.62;0.00;0.00;0.62;2.03;1.27;;;26.30;31.30;;;;;;2246027;61;20721;-62
2021/08/27 02:02:24;0.00;0.00;0.62;0.00;0.00;0.62;1.50;1.10;;;26.30;31.30;;;;;;2245091;61;20796;-62
2021/08/27 02:05:09;0.00;0.00;0.62;0.00;0.00;0.62;1.97;1.30;;;26.30;31.30;;;;;;2246050;61;20433;-61
2021/08/27 02:07:57;0.00;0.00;0.62;0.00;0.00;0.62;2.13;1.40;;;26.30;31.30;;;;;;2245386;61;20437;-62
2021/08/27 02:10:43;0.00;0.00;0.62;0.00;0.00;0.62;2.43;1.57;;;26.30;31.30;;;;;;2245337;61;20718;-61
2021/08/27 02:13:29;0.00;0.00;0.62;0.00;0.00;0.62;2.57;1.10;;;26.30;31.30;;;;;;2245844;61;20370;-61
2021/08/27 02:16:15;0.00;0.00;0.62;0.00;0.00;0.62;2.87;1.10;;;26.30;31.30;;;;;;2245435;61;20722;-61
2021/08/27 02:19:00;0.00;0.00;0.62;0.00;0.00;0.62;1.80;1.10;;;26.30;31.30;;;;;;2245694;61;20643;-61
2021/08/27 02:21:51;0.00;0.00;0.62;0.00;0.00;0.62;1.87;1.37;;;26.30;31.40;;;;;;2245984;61;20369;-61
2021/08/27 02:24:41;0.00;0.00;0.62;0.00;0.00;0.62;1.93;1.33;;;26.30;31.40;;;;;;2244973;61;20471;-61
2021/08/27 02:27:28;0.00;0.00;0.62;0.00;0.00;0.62;1.97;1.20;;;26.30;31.40;;;;;;2245992;61;20460;-62
2021/08/27 02:30:15;0.00;0.00;0.62;0.00;0.00;0.62;2.60;1.20;;;26.30;31.50;;;;;;2245528;61;20461;-61
2021/08/27 02:33:08;0.00;0.00;0.62;0.00;0.00;0.62;1.80;1.20;;;26.30;31.50;;;;;;2245186;61;20396;-61
2021/08/27 02:35:53;0.00;0.00;0.62;0.00;0.00;0.62;2.20;1.27;;;26.30;31.50;;;;;;2245575;61;20402;-61
2021/08/27 02:38:39;0.00;0.00;0.62;0.00;0.00;0.62;1.60;1.10;;;26.30;31.60;;;;;;2245105;61;20462;-60
2021/08/27 02:41:25;0.00;0.00;0.62;0.00;0.00;0.62;2.10;1.40;;;26.30;31.60;;;;;;2245950;61;20369;-62
2021/08/27 02:44:09;0.00;0.00;0.62;0.00;0.00;0.62;3.03;1.77;;;26.30;31.60;;;;;;2246075;61;20445;-61
2021/08/27 02:46:54;0.00;0.00;0.62;0.00;0.00;0.62;1.83;1.10;;;26.30;31.60;;;;;;2244765;61;20605;-61
2021/08/27 02:49:39;0.00;0.00;0.62;0.00;0.00;0.62;2.00;1.33;;;26.30;31.70;;;;;;2245922;61;20365;-62
2021/08/27 02:52:31;0.00;0.00;0.62;0.00;0.00;0.62;2.33;1.30;;;26.30;31.70;;;;;;2245330;61;20365;-62
2021/08/27 02:55:19;0.00;0.00;0.62;0.00;0.00;0.62;2.40;1.60;;;26.30;31.70;;;;;;2245191;61;20390;-62
2021/08/27 02:58:10;0.00;0.00;0.62;0.00;0.00;0.62;1.97;1.20;;;26.30;31.70;;;;;;2245893;61;20441;-60
2021/08/27 03:01:18;0.00;0.00;0.62;0.00;0.00;0.62;2.37;1.23;;;26.20;31.60;;;;;;2245106;61;20700;-62
2021/08/27 03:04:08;0.00;0.00;0.62;0.00;0.00;0.62;1.70;1.23;;;26.20;31.70;;;;;;2245925;61;20638;-62
2021/08/27 03:07:04;0.00;0.00;0.62;0.00;0.00;0.62;2.37;1.30;;;26.30;31.70;;;;;;2245663;61;20405;-62
2021/08/27 03:10:01;0.00;0.00;0.62;0.00;0.00;0.62;2.87;1.63;;;26.20;31.70;;;;;;2245246;61;20722;-62
2021/08/27 03:12:51;0.00;0.00;0.62;0.00;0.00;0.62;3.77;1.73;;;26.30;31.70;;;;;;2245598;61;20353;-61
2021/08/27 03:15:44;0.00;0.00;0.62;0.00;0.00;0.62;1.70;1.10;;;26.20;32.30;;;;;;2245014;61;20369;-59
2021/08/27 03:18:38;0.00;0.00;0.62;0.00;0.00;0.62;2.00;1.40;;;26.20;31.70;;;;;;2245909;61;20398;-61
2021/08/27 03:21:31;0.00;0.00;0.62;0.00;0.00;0.62;2.30;1.43;;;26.20;31.60;;;;;;2245908;61;20365;-62
2021/08/27 03:24:20;0.00;0.00;0.62;0.00;0.00;0.62;1.70;1.20;;;26.20;31.60;;;;;;2244811;61;20777;-62
2021/08/27 03:27:10;0.00;0.00;0.62;0.00;0.00;0.62;1.87;1.30;;;26.20;31.50;;;;;;2245635;61;20415;-61
2021/08/27 03:30:00;0.00;0.00;0.62;0.00;0.00;0.62;2.03;1.30;;;26.20;31.50;;;;;;2245347;61;20469;-61
2021/08/27 03:32:50;0.00;0.00;0.62;0.00;0.00;0.62;3.10;1.97;;;26.10;31.50;;;;;;2245392;61;20434;-61
2021/08/27 03:35:35;0.00;0.00;0.62;0.00;0.00;0.62;2.70;1.50;;;26.10;31.50;;;;;;2245688;61;20365;-61
2021/08/27 03:38:24;0.00;0.00;0.62;0.00;0.00;0.62;2.10;1.10;;;26.10;31.60;;;;;;2244650;61;20425;-61
2021/08/27 03:41:09;0.00;0.00;0.62;0.00;0.00;0.62;1.93;1.37;;;26.10;31.50;;;;;;2245671;61;20369;-61
2021/08/27 03:43:55;0.00;0.00;0.62;0.00;0.00;0.62;2.73;1.60;;;26.10;31.50;;;;;;2245827;61;20365;-61
2021/08/27 03:46:40;0.00;0.00;0.62;0.00;0.00;0.62;3.30;1.70;;;26.10;31.60;;;;;;2244940;61;20362;-61
2021/08/27 03:49:26;0.00;0.00;0.62;0.00;0.00;0.62;2.03;1.20;;;26.10;31.60;;;;;;2245733;61;20384;-61
2021/08/27 03:52:11;0.00;0.00;0.62;0.00;0.00;0.62;2.30;1.40;;;26.10;31.70;;;;;;2244793;61;20360;-62
2021/08/27 03:54:57;0.00;0.00;0.62;0.00;0.00;0.62;1.90;1.40;;;26.00;31.60;;;;;;2244705;61;20400;-62
2021/08/27 03:57:44;0.00;0.00;0.62;0.00;0.00;0.62;2.63;1.33;;;26.10;32.30;;;;;;2245598;61;20401;-62
2021/08/27 04:00:28;0.00;0.00;0.62;0.00;0.00;0.62;2.90;1.90;;;26.00;31.60;;;;;;2244734;61;20397;-60
2021/08/27 04:03:13;0.00;0.00;0.62;0.00;0.00;0.62;2.53;1.30;;;26.00;31.60;;;;;;2245703;61;20587;-62
2021/08/27 04:06:02;0.00;0.00;0.62;0.00;0.00;0.62;2.50;1.60;;;26.00;31.60;;;;;;2245190;61;20760;-62
2021/08/27 04:08:46;0.00;0.00;0.62;0.00;0.00;0.62;2.70;1.30;;;26.00;31.70;;;;;;2244810;61;20452;-61
2021/08/27 04:11:31;0.00;0.00;0.62;0.00;0.00;0.62;3.40;1.47;;;26.00;31.70;;;;;;2245720;61;20237;-61
2021/08/27 04:14:16;0.00;0.00;0.62;0.00;0.00;0.62;2.50;1.47;;;26.00;31.70;;;;;;2245179;61;20691;-61
2021/08/27 04:17:04;0.00;0.00;0.62;0.00;0.00;0.62;2.80;1.30;;;26.00;31.70;;;;;;2244766;61;20602;-61
2021/08/27 04:19:49;0.00;0.00;0.62;0.00;0.00;0.62;3.40;1.27;;;26.00;31.70;;;;;;2245831;61;20366;-61
2021/08/27 04:22:34;0.00;0.00;0.62;0.00;0.00;0.62;2.73;1.60;;;26.00;31.70;;;;;;2244370;61;20481;-62
2021/08/27 04:25:19;0.00;0.00;0.62;0.00;0.00;0.62;2.40;1.27;;;26.00;31.70;;;;;;2245742;61;20645;-61
2021/08/27 04:28:04;0.00;0.00;0.62;0.00;0.00;0.62;2.93;1.30;;;26.00;31.70;;;;;;2245587;61;20381;-61
2021/08/27 04:30:49;0.00;0.00;0.62;0.00;0.00;0.62;1.60;1.20;;;26.00;31.70;;;;;;2244846;61;20658;-61
2021/08/27 04:33:33;0.00;0.00;0.62;0.00;0.00;0.62;2.10;1.50;;;26.00;31.70;;;;;;2245727;61;20401;-61
2021/08/27 04:36:19;0.00;0.00;0.62;0.00;0.00;0.62;2.00;1.40;;;26.00;31.70;;;;;;2244879;61;20354;-61
2021/08/27 04:39:05;0.00;0.00;0.62;0.00;0.00;0.62;1.97;1.40;;;26.00;31.80;;;;;;2244642;61;20801;-62
2021/08/27 04:41:49;0.00;0.00;0.62;0.00;0.00;0.62;2.57;1.50;;;26.00;31.80;;;;;;2245652;61;20389;-60
2021/08/27 04:44:34;0.00;0.00;0.62;0.00;0.00;0.62;2.37;1.40;;;25.90;31.80;;;;;;2244686;61;20365;-62
2021/08/27 04:47:18;0.00;0.00;0.62;0.00;0.00;0.62;1.80;1.43;;;25.90;31.70;;;;;;2245550;61;20751;-62
2021/08/27 04:50:04;0.00;0.00;0.62;0.00;0.00;0.62;2.90;1.40;;;25.90;31.80;;;;;;2245699;61;20587;-62
2021/08/27 04:52:49;0.00;0.00;0.62;0.00;0.00;0.62;2.33;1.20;;;25.90;31.80;;;;;;2244529;61;20381;-62
2021/08/27 04:55:35;0.00;0.00;0.62;0.00;0.00;0.62;2.80;1.30;;;25.90;31.80;;;;;;2245560;61;20424;-62
2021/08/27 04:58:22;0.00;0.00;0.62;0.00;0.00;0.62;2.10;1.47;;;25.90;31.80;;;;;;2245032;61;20518;-62
2021/08/27 05:01:07;0.00;0.00;0.62;0.00;0.00;0.62;1.40;1.03;;;25.90;31.80;;;;;;2245631;61;20410;-61
2021/08/27 05:03:51;0.00;0.00;0.62;0.00;0.00;0.62;1.80;1.40;;;25.80;31.70;;;;;;2246366;61;20362;-61
2021/08/27 05:06:36;0.00;0.00;0.62;0.00;0.00;0.62;2.40;1.50;;;25.90;31.80;;;;;;2245239;61;20381;-61
2021/08/27 05:09:21;0.00;0.00;0.62;0.00;0.00;0.62;2.97;1.50;;;25.90;32.50;;;;;;2246293;61;20361;-62
2021/08/27 05:12:07;0.00;0.00;0.62;0.00;0.00;0.62;4.30;1.40;;;25.90;31.90;;;;;;2246032;61;20795;-62
2021/08/27 05:14:52;0.00;0.00;0.62;0.00;0.00;0.62;2.03;1.50;;;25.80;31.80;;;;;;2245192;61;20489;-62
2021/08/27 05:17:37;0.00;0.00;0.62;0.00;0.00;0.62;2.57;1.40;;;25.80;31.70;;;;;;2246046;61;20780;-62
2021/08/27 05:20:22;0.00;0.00;0.62;0.00;0.00;0.62;2.40;1.53;;;25.80;31.80;;;;;;2245615;61;20365;-62
2021/08/27 05:23:06;0.00;0.00;0.62;0.00;0.00;0.62;3.33;1.50;;;25.80;31.70;;;;;;2245628;61;20368;-62
2021/08/27 05:25:52;0.00;0.00;0.62;0.00;0.00;0.62;2.73;1.50;;;25.80;31.80;;;;;;2245667;61;20357;-62
2021/08/27 05:28:38;0.00;0.00;0.62;0.00;0.00;0.62;3.10;1.57;;;25.80;31.80;;;;;;2245250;61;20377;-62
2021/08/27 05:31:23;0.00;0.00;0.62;0.00;0.00;0.62;2.50;1.57;;;25.80;31.80;;;;;;2245953;61;20365;-63
2021/08/27 05:34:08;0.00;0.00;0.62;0.00;0.00;0.62;5.57;1.47;;;25.80;31.90;;;;;;2245949;61;20362;-62
2021/08/27 05:36:52;0.00;0.00;0.62;0.00;0.00;0.62;2.10;1.40;;;25.80;32.00;;;;;;2244925;61;20397;-61
2021/08/27 05:39:37;0.00;0.00;0.62;0.00;0.00;0.62;2.80;1.30;;;25.80;32.00;;;;;;2246183;61;20733;-63
2021/08/27 05:42:22;0.00;0.00;0.62;0.00;0.00;0.62;2.63;1.70;;;25.80;32.00;;;;;;2245858;61;20356;-62
2021/08/27 05:45:11;0.00;0.00;0.62;0.00;0.00;0.62;2.30;1.70;;;25.80;32.00;;;;;;2245544;61;20358;-61
2021/08/27 05:47:55;0.00;0.00;0.62;0.00;0.00;0.62;2.93;1.43;;;25.80;32.00;;;;;;2245837;61;20722;-61
2021/08/27 05:50:40;0.00;0.00;0.62;0.00;0.00;0.62;2.50;1.50;;;25.80;32.10;;;;;;2245742;61;20362;-60
2021/08/27 05:53:24;0.00;0.00;0.62;0.00;0.00;0.62;3.50;1.57;;;25.70;32.00;;;;;;2245580;61;20418;-61
2021/08/27 05:56:09;0.00;0.00;0.62;0.00;0.00;0.62;2.70;1.57;;;25.80;32.10;;;;;;2245843;61;20405;-62
2021/08/27 05:58:53;0.00;0.00;0.62;0.00;0.00;0.62;2.00;1.50;;;25.80;32.20;;;;;;2244999;61;20562;-62
2021/08/27 06:01:39;0.00;0.00;0.62;0.00;0.00;0.62;1.90;1.13;;;25.80;32.20;;;;;;2245712;61;20393;-61
2021/08/27 06:04:24;0.00;0.00;0.62;0.00;0.00;0.62;2.20;1.50;;;25.70;32.10;;;;;;2246179;61;20381;-62
2021/08/27 06:07:09;0.00;0.00;0.62;0.00;0.00;0.62;2.43;1.70;;;25.80;32.20;;;;;;2244906;61;20746;-61
2021/08/27 06:09:54;0.00;0.00;0.62;0.00;0.00;0.62;2.23;1.73;;;25.80;32.20;;;;;;2245872;61;20725;-64
2021/08/27 06:12:39;0.00;0.00;0.62;0.00;0.00;0.62;3.33;1.67;;;25.80;32.30;;;;;;2245568;61;20590;-63
2021/08/27 06:15:24;0.00;0.00;0.62;0.00;0.00;0.62;2.83;1.63;;;25.80;32.20;;;;;;2245326;61;20398;-63
2021/08/27 06:18:10;0.00;0.00;0.62;0.00;0.00;0.62;1.77;1.13;;;25.80;32.20;;;;;;2245984;61;20397;-64
2021/08/27 06:20:55;0.00;0.00;0.62;0.00;0.00;0.62;2.37;1.30;;;25.80;32.90;;;;;;2245027;61;20389;-62
2021/08/27 06:23:39;0.00;0.00;0.62;0.00;0.00;0.62;2.33;1.40;;;25.80;32.20;;;;;;2245870;61;20374;-62
2021/08/27 06:26:24;0.00;0.00;0.62;0.00;0.00;0.62;3.10;1.70;;;25.80;32.20;;;;;;2245901;61;20366;-61
2021/08/27 06:29:09;0.00;0.00;0.62;0.00;0.00;0.62;3.33;2.00;;;25.80;32.20;;;;;;2245045;61;20426;-62
2021/08/27 06:31:53;0.00;0.00;0.62;0.00;0.00;0.62;2.20;1.60;;;25.80;32.20;;;;;;2245827;61;20418;-62
2021/08/27 06:34:39;0.00;0.00;0.62;0.00;0.00;0.62;3.30;1.77;;;25.80;32.30;;;;;;2245226;61;20757;-62
2021/08/27 06:38:21;0.00;0.00;0.62;0.00;0.00;0.62;2.73;1.60;;;25.80;32.30;;;;;;2244961;61;20396;-61
2021/08/27 06:40:30;0.00;0.00;0.62;0.00;0.00;0.62;3.90;1.60;;;25.80;32.30;;;;;;2246011;61;20397;-61
2021/08/27 06:43:16;0.00;0.00;0.62;0.00;0.00;0.62;4.40;1.80;;;25.80;32.30;;;;;;2244730;61;20362;-61
2021/08/27 06:46:03;0.00;0.00;0.62;0.00;0.00;0.62;4.20;1.90;;;25.80;32.30;;;;;;2245800;61;20443;-62
2021/08/27 06:48:50;0.00;0.00;0.62;0.00;0.00;0.62;1.90;1.50;;;25.80;32.40;;;;;;2245575;61;20382;-62
2021/08/27 06:51:36;0.00;0.00;0.62;0.00;0.00;0.62;1.70;1.17;;;25.80;32.40;;;;;;2244650;61;20389;-63
2021/08/27 06:54:20;0.00;0.00;0.62;0.00;0.00;0.62;1.80;1.20;;;25.80;32.40;;;;;;2245951;61;20451;-62
2021/08/27 06:57:05;0.00;0.00;0.62;0.00;0.00;0.62;3.90;1.57;;;25.80;32.40;;;;;;2244805;61;20390;-63
2021/08/27 06:59:50;0.00;0.00;0.62;0.00;0.00;0.62;2.60;1.50;;;25.80;32.40;;;;;;2245414;61;20401;-63
2021/08/27 07:02:34;0.00;0.00;0.62;0.00;0.00;0.62;1.80;1.43;;;25.80;32.40;;;;;;2245999;61;20462;-60
2021/08/27 07:05:19;0.00;0.00;0.62;0.00;0.00;0.62;2.40;1.63;;;25.80;32.40;;;;;;2244629;61;20457;-63
2021/08/27 07:08:05;0.00;0.00;0.62;0.00;0.00;0.62;2.57;1.47;;;25.80;32.40;;;;;;2245751;61;20381;-62
2021/08/27 07:10:49;0.00;0.00;0.62;0.00;0.00;0.62;1.77;1.37;;;25.80;32.40;;;;;;2245897;61;20468;-64
2021/08/27 07:13:34;0.00;0.00;0.62;0.00;0.00;0.62;3.30;1.53;;;25.80;32.50;;;;;;2244691;61;20401;-62
2021/08/27 07:16:19;0.00;0.00;0.62;0.00;0.00;0.62;3.23;1.57;;;25.80;32.50;;;;;;2245715;61;20382;-61
2021/08/27 07:19:03;0.00;0.00;0.62;0.00;0.00;0.62;3.03;1.63;;;25.80;32.60;;;;;;2245392;61;20632;-62
2021/08/27 07:21:48;0.00;0.00;0.62;0.00;0.00;0.62;2.87;1.23;;;25.80;32.60;;;;;;2245173;61;20433;-64
2021/08/27 07:24:34;0.00;0.00;0.62;0.00;0.00;0.62;2.47;1.63;;;25.80;32.60;;;;;;2245823;61;20361;-60
2021/08/27 07:27:19;0.00;0.00;0.62;0.00;0.00;0.62;4.07;1.83;;;25.80;32.60;;;;;;2244513;61;20619;-62
2021/08/27 07:30:05;0.00;0.00;0.62;0.00;0.00;0.62;2.17;1.50;;;25.90;32.70;;;;;;2244193;61;20402;-64
2021/08/27 07:32:50;0.00;0.00;0.62;0.00;0.00;0.62;2.13;1.33;;;25.90;32.80;;;;;;2245331;61;20495;-62
2021/08/27 07:35:35;0.00;0.00;0.62;0.00;0.00;0.62;2.33;1.30;;;25.80;32.70;;;;;;2242154;61;20773;-62
2021/08/27 07:38:19;0.00;0.00;0.62;0.00;0.00;0.62;2.73;1.20;;;25.90;32.80;;;;;;2245263;61;20784;-62
2021/08/27 07:41:05;0.00;0.00;0.62;0.00;0.00;0.62;2.20;1.63;;;25.90;32.80;;;;;;2245021;61;20381;-62
2021/08/27 07:43:50;0.00;0.00;0.62;0.00;0.00;0.62;2.47;1.57;;;25.90;32.80;;;;;;2243651;61;20365;-62
2021/08/27 07:46:35;0.00;0.00;0.62;0.00;0.00;0.62;4.10;1.60;;;25.90;33.60;;;;;;2244940;61;20366;-63
2021/08/27 07:49:19;0.00;0.00;0.62;0.00;0.00;0.62;2.77;1.60;;;25.90;32.80;;;;;;2244415;61;20370;-62
2021/08/27 07:52:04;0.00;0.00;0.62;0.00;0.00;0.62;1.80;1.20;;;25.90;32.90;;;;;;2245376;61;20493;-60
2021/08/27 07:54:49;0.00;0.00;0.62;0.00;0.00;0.62;2.00;1.20;;;25.90;32.90;;;;;;2244765;61;20822;-61
2021/08/27 07:57:39;0.00;0.00;0.62;0.00;0.00;0.62;2.77;1.43;;;26.00;33.00;;;;;;2244367;61;20445;-63
2021/08/27 08:00:23;0.00;0.00;0.62;0.00;0.00;0.62;4.37;1.80;;;26.00;33.00;;;;;;2245519;61;20370;-61
2021/08/27 08:03:08;0.00;0.00;0.62;0.00;0.00;0.62;1.97;1.43;;;25.90;32.90;;;;;;2244970;61;20475;-61
2021/08/27 08:05:52;0.00;0.00;0.62;0.00;0.00;0.62;2.37;1.37;;;26.00;33.00;;;;;;2243247;61;20416;-61
2021/08/27 08:08:37;0.00;0.00;0.62;0.00;0.00;0.62;2.33;1.30;;;26.00;33.00;;;;;;2245473;61;20454;-61
2021/08/27 08:11:22;0.00;0.00;0.62;0.00;0.00;0.62;2.07;1.27;;;26.00;33.00;;;;;;2244785;61;20570;-62
2021/08/27 08:14:08;0.00;0.00;0.62;0.00;0.00;0.62;2.50;1.40;;;26.00;33.00;;;;;;2250595;55;20839;-61
2021/08/27 08:16:52;0.00;0.00;0.62;0.00;0.00;0.62;2.43;1.50;;;26.00;32.90;;;;;;2252940;61;20368;-62
2021/08/27 08:19:37;0.00;0.00;0.62;0.00;0.00;0.62;2.63;1.27;;;26.00;32.90;;;;;;2252927;61;20391;-62
2021/08/27 08:22:22;0.00;0.00;0.62;0.00;0.00;0.62;2.50;1.60;;;26.00;33.00;;;;;;2253360;61;20375;-61
2021/08/27 08:25:08;0.00;0.00;0.62;0.00;0.00;0.62;1.90;1.50;;;26.00;33.00;;;;;;2253296;61;20399;-60
2021/08/27 08:27:52;0.00;0.00;0.62;0.00;0.00;0.62;2.60;1.70;;;26.00;33.10;;;;;;2251191;61;20459;-62
2021/08/27 08:30:39;0.00;0.00;0.62;0.00;0.00;0.62;3.40;1.60;;;26.10;33.30;;;;;;2482949;53;20388;-61
2021/08/27 08:33:23;0.00;0.00;0.62;0.00;0.00;0.62;2.53;1.27;;;26.00;33.10;;;;;;2249336;61;20593;-62
2021/08/27 08:36:08;0.00;0.00;0.62;0.00;0.00;0.62;3.03;1.63;;;26.10;33.20;;;;;;2252150;61;20367;-62
2021/08/27 08:38:53;0.00;0.00;0.62;0.00;0.00;0.62;2.23;1.40;;;26.10;33.20;;;;;;2254072;61;20799;-61
2021/08/27 08:41:38;0.00;0.00;0.62;0.00;0.00;0.62;2.03;1.33;;;26.10;33.20;;;;;;2252528;61;20528;-61
2021/08/27 08:44:23;0.00;0.00;0.62;0.00;0.00;0.62;1.97;1.57;;;26.10;33.20;;;;;;2251999;61;20371;-62
2021/08/27 08:47:11;0.00;0.00;0.62;0.00;0.00;0.62;3.23;1.80;;;26.10;33.30;;;;;;2253507;61;20388;-60
2021/08/27 08:49:57;0.00;0.00;0.62;0.00;0.00;0.62;4.10;1.37;;;26.10;33.30;;;;;;2252849;61;20758;-61
2021/08/27 08:52:42;0.00;0.00;0.62;0.00;0.00;0.62;2.57;1.27;;;26.10;33.40;;;;;;2253506;61;20359;-61
2021/08/27 08:55:27;0.00;0.00;0.62;0.00;0.00;0.62;1.77;1.27;;;26.10;33.30;;;;;;2254302;61;20359;-61
2021/08/27 08:58:12;0.00;0.00;0.62;0.00;0.00;0.62;3.33;1.87;;;26.10;33.30;;;;;;2250490;61;20774;-62
2021/08/27 09:00:58;0.00;0.00;0.62;0.00;0.00;0.62;1.90;1.40;;;26.10;33.20;;;;;;2253827;61;20711;-61
2021/08/27 09:03:47;0.00;0.00;0.62;0.00;0.00;0.62;2.40;1.50;;;26.20;33.30;;;;;;2252838;61;20383;-62
2021/08/27 09:06:34;0.00;0.00;0.62;0.00;0.00;0.62;2.13;1.57;;;26.10;33.20;;;;;;2253796;61;20650;-61
2021/08/27 09:09:30;0.00;0.00;0.62;0.00;0.00;0.62;2.70;1.67;;;26.20;33.30;;;;;;2252466;61;20402;-62
2021/08/27 09:12:18;0.00;0.00;0.62;0.00;0.00;0.62;2.07;1.37;;;26.10;33.20;;;;;;2253067;61;20464;-62
2021/08/27 09:15:06;0.00;0.00;0.62;0.00;0.00;0.62;2.43;1.67;;;26.20;33.30;;;;;;2254174;61;20363;-61
2021/08/27 09:17:51;0.00;0.00;0.62;0.00;0.00;0.62;1.87;1.33;;;26.20;33.30;;;;;;2253629;61;20391;-59
2021/08/27 09:20:37;0.00;0.00;0.62;0.00;0.00;0.62;2.30;1.63;;;26.20;33.30;;;;;;2252901;61;20697;-59
2021/08/27 09:23:21;0.00;0.00;0.62;0.00;0.00;0.62;2.30;1.87;;;26.20;33.40;;;;;;2253978;61;20721;-59
2021/08/27 09:26:06;0.00;0.00;0.62;0.00;0.00;0.62;3.40;1.70;;;26.20;33.40;;;;;;2253545;61;20712;-59
2021/08/27 09:28:51;0.00;0.00;0.62;0.00;0.00;0.62;1.80;1.57;;;26.20;33.40;;;;;;2254282;61;20423;-61
2021/08/27 09:31:38;0.00;0.00;0.62;0.00;0.00;0.62;2.53;1.43;;;26.20;33.40;;;;;;2253734;61;20763;-59
2021/08/27 09:34:27;0.00;0.00;0.62;0.00;0.00;0.62;2.23;1.30;;;26.30;33.50;;;;;;2253044;61;20383;-59
2021/08/27 09:37:13;0.00;0.00;0.62;0.00;0.00;0.62;2.77;1.23;;;26.30;33.50;;;;;;2253932;61;20380;-63
2021/08/27 09:40:03;0.00;0.00;0.62;0.00;0.00;0.62;2.60;1.63;;;26.30;34.20;;;;;;2253703;61;20368;-63
2021/08/27 09:42:50;0.00;0.00;0.62;0.00;0.00;0.62;2.00;1.40;;;26.30;33.50;;;;;;2253207;61;20444;-62
2021/08/27 09:45:37;0.00;0.00;0.62;0.00;0.00;0.62;2.20;1.50;;;26.30;33.50;;;;;;2253904;61;20364;-61
2021/08/27 09:48:22;0.00;0.00;0.62;0.00;0.00;0.62;2.27;1.33;;;26.30;33.50;;;;;;2253582;61;20398;-61
2021/08/27 09:51:06;0.00;0.00;0.62;0.00;0.00;0.62;1.90;1.20;;;26.30;33.50;;;;;;2253954;61;20411;-62
2021/08/27 09:53:52;0.00;0.00;0.62;0.00;0.00;0.62;4.13;1.77;;;26.30;33.50;;;;;;2253444;61;20395;-61
2021/08/27 09:56:45;0.00;0.00;0.62;0.00;0.00;0.62;1.97;1.20;;;26.40;33.60;;;;;;2253012;61;20364;-64
2021/08/27 09:59:38;0.00;0.00;0.62;0.00;0.00;0.62;2.80;1.80;;;26.30;33.50;;;;;;2254140;61;20360;-64
2021/08/27 10:02:31;0.00;0.00;0.62;0.00;0.00;0.62;2.60;1.80;;;26.40;33.60;;;;;;2253797;61;20738;-62
2021/08/27 10:05:16;0.00;0.00;0.62;0.00;0.00;0.62;2.30;1.40;;;26.40;33.60;;;;;;2253493;61;20801;-61
2021/08/27 10:08:13;0.00;0.00;0.62;0.00;0.00;0.62;2.37;1.80;;;26.40;33.60;;;;;;2253532;61;20376;-62
2021/08/27 10:11:17;0.00;0.00;0.62;0.00;0.00;0.62;3.83;1.50;;;26.40;33.60;;;;;;2253300;61;20380;-62
2021/08/27 10:14:05;0.00;0.00;0.62;0.00;0.00;0.62;2.67;2.23;;;26.40;33.70;;;;;;2253805;61;20703;-64
2021/08/27 10:16:50;0.00;0.00;0.62;0.00;0.00;0.62;2.37;1.50;;;26.40;33.70;;;;;;2253441;61;20392;-62
2021/08/27 10:19:34;0.00;0.00;0.62;0.00;0.00;0.62;1.93;1.30;;;26.40;33.60;;;;;;2253180;61;20612;-64
2021/08/27 10:22:19;0.00;0.00;0.62;0.00;0.00;0.62;3.10;1.60;;;26.40;33.60;;;;;;2253847;61;20396;-63
2021/08/27 10:25:07;0.00;0.00;0.62;0.00;0.00;0.62;2.10;1.90;;;26.40;33.70;;;;;;2253493;61;20399;-62
2021/08/27 10:27:54;0.00;0.00;0.62;0.00;0.00;0.62;2.33;1.70;;;26.40;33.60;;;;;;2253453;61;20376;-61
2021/08/27 10:30:57;0.00;0.00;0.62;0.00;0.00;0.62;1.93;1.57;;;26.50;33.80;;;;;;2253614;61;20363;-63
2021/08/27 10:34:03;0.00;0.00;0.62;0.00;0.00;0.62;3.50;1.80;;;26.50;33.80;;;;;;2253025;61;20402;-61
2021/08/27 10:36:57;0.00;0.00;0.62;0.00;0.00;0.62;4.50;2.00;;;26.50;33.70;;;;;;2253710;61;20618;-62
2021/08/27 10:39:45;0.00;0.00;0.62;0.00;0.00;0.62;4.73;2.97;;;26.50;34.40;;;;;;2253737;61;20452;-62
2021/08/27 10:42:50;0.00;0.00;0.62;0.00;0.00;0.62;3.03;2.20;;;26.50;33.60;;;;;;2253464;61;20406;-63
2021/08/27 10:45:53;0.00;0.00;0.62;0.00;0.00;0.62;3.00;2.33;;;26.50;33.50;;;;;;2253655;61;20376;-62
2021/08/27 10:48:49;0.00;0.00;0.62;0.00;0.00;0.62;3.33;2.20;;;26.50;33.50;;;;;;2253212;61;20379;-63
2021/08/27 10:51:36;0.00;0.00;0.62;0.00;0.00;0.62;1.83;1.63;;;26.50;33.50;;;;;;2253865;61;20391;-61
2021/08/27 10:54:21;0.00;0.00;0.62;0.00;0.00;0.62;2.97;2.10;;;26.50;33.50;;;;;;2253550;61;20739;-61
2021/08/27 10:57:18;0.00;0.00;0.62;0.00;0.00;0.62;4.20;2.50;;;26.50;33.50;;;;;;2252801;61;20396;-61
2021/08/27 11:00:03;0.00;0.00;0.62;0.00;0.00;0.62;3.23;2.50;;;26.50;33.60;;;;;;2253572;61;20360;-62